Flight Track Log - Related Links

Times and Time Zones

All times are in EDT time to prevent confusion due to time zone crossing. See the AAL832 flight status page for this flight to view local times or setup timezone preferences in your user account.

Time Position Orientation Groundspeed Altitude Reporting Facility
EDT Latitude Longitude Course Direction KTS MPH feet Rate Location/Type
Tue 05:52:13 PM 41.8833 -87.9000 180° South 192 221 3,400  Level Chicago TRACON
Tue 05:53:00 PM 41.6600 -87.7189 180° South  Level Estimated
Tue 05:53:28 PM 41.8169 -87.8628 157° South 237 273 5,400  Level Chicago Center
Tue 05:54:00 PM 41.5527 -87.6567 176° South  Level Estimated
Tue 05:54:30 PM 41.7467 -87.8200 156° South 286 329 7,800  Level Chicago Center
Tue 05:55:00 PM 41.4454 -87.5947 180° South  Level Estimated
Tue 05:55:32 PM 41.6697 -87.8303 186° South 279 321 10,500  Level Chicago Center
Tue 05:56:00 PM 41.3381 -87.5329 180° South  Level Estimated
Tue 05:56:34 PM 41.5886 -87.8439 187° South 292 336 12,600  Level Chicago Center
Tue 05:57:36 PM 41.4917 -87.8261 172° South 344 396 13,900 2,081 Climbing Chicago Center
Tue 05:58:38 PM 41.3681 -87.7986 171° South 369 425 16,900 2,371 Climbing Chicago Center
Tue 05:59:40 PM 41.2606 -87.7739 170° South 382 440 18,800 1,728 Climbing Chicago Center
Tue 06:00:43 PM 41.1472 -87.7483 170° South 403 464 20,500 1,536 Climbing Chicago Center
Tue 06:01:45 PM 41.0317 -87.7217 170° South 417 480 22,000 1,452 Climbing Chicago Center
Tue 06:02:47 PM 40.9125 -87.6936 170° South 432 497 23,500 1,355 Climbing Chicago Center
Tue 06:03:49 PM 40.7919 -87.6653 170° South 440 506 24,800 1,258 Climbing Chicago Center
Tue 06:04:51 PM 40.6450 -87.6156 166° South 463 533 26,100 1,113 Climbing Chicago Center
Tue 06:05:53 PM 40.5319 -87.5281 150° Southeast 476 548 27,100 1,016 Climbing Chicago Center
Tue 06:06:55 PM 40.4289 -87.4481 149° Southeast 483 556 28,200 1,210 Climbing Chicago Center
Tue 06:07:57 PM 40.2872 -87.3478 152° Southeast 484 557 29,600 1,306 Climbing Chicago Center
Tue 06:08:59 PM 40.1622 -87.2869 160° South 480 552 30,900 1,179 Climbing Chicago Center
Tue 06:09:49 PM 40.0583 -87.2617 169° South 469 540 31,800 911 Climbing Indianapolis Center
Tue 06:10:51 PM 39.9261 -87.2453 175° South 474 545 32,600 774 Climbing Indianapolis Center
Tue 06:11:53 PM 39.7925 -87.2256 174° South 484 557 33,400 1,065 Climbing Indianapolis Center
Tue 06:12:55 PM 39.6339 -87.2006 173° South 484 557 34,800 823 Climbing Indianapolis Center
Tue 06:13:57 PM 39.5022 -87.1800 173° South 480 552 35,100 581 Climbing Indianapolis Center
Tue 06:14:59 PM 39.3722 -87.1600 173° South 475 547 36,000 629 Climbing Indianapolis Center
Tue 06:16:01 PM 39.2425 -87.1414 174° South 473 544 36,400 435 Climbing Indianapolis Center
Tue 06:17:03 PM 39.0942 -87.1189 173° South 480 552 36,900 290 Climbing Indianapolis Center
Tue 06:18:05 PM 38.9600 -87.1003 174° South 482 555 37,000 48 Climbing Indianapolis Center
Tue 06:19:07 PM 38.8269 -87.0772 172° South 482 555 37,000  Level Indianapolis Center
Tue 06:20:10 PM 38.6942 -87.0572 173° South 478 550 37,000  Level Indianapolis Center
Tue 06:21:12 PM 38.5611 -87.0364 173° South 478 550 37,000  Level Indianapolis Center
Tue 06:22:14 PM 38.4228 -87.0161 173° South 478 550 37,000  Level Indianapolis Center
Tue 06:23:16 PM 38.2911 -86.9956 173° South 479 551 37,000  Level Indianapolis Center
Tue 06:24:18 PM 38.1514 -86.9756 174° South 478 550 37,000  Level Indianapolis Center
Tue 06:25:20 PM 37.9925 -86.9522 173° South 476 548 37,000  Level Indianapolis Center
Tue 06:26:22 PM 37.8608 -86.9328 173° South 474 545 37,000  Level Indianapolis Center
Tue 06:27:24 PM 37.7275 -86.9131 173° South 479 551 37,000  Level Indianapolis Center
Tue 06:28:26 PM 37.5944 -86.8931 173° South 481 554 37,000  Level Indianapolis Center
Tue 06:29:28 PM 37.4481 -86.8742 174° South 480 552 37,000  Level Indianapolis Center
Tue 06:30:30 PM 37.3125 -86.8556 174° South 482 555 37,000  Level Indianapolis Center
Tue 06:31:32 PM 37.1769 -86.8347 173° South 486 559 37,000  Level Indianapolis Center
Tue 06:32:34 PM 37.0408 -86.8139 173° South 486 559 37,000  Level Indianapolis Center
Tue 06:33:36 PM 36.9053 -86.7942 173° South 487 560 37,000  Level Indianapolis Center
Tue 06:34:19 PM 36.7969 -86.7789 174° South 486 559 37,000  Level Memphis Center
Tue 06:35:19 PM 36.6756 -86.7608 173° South 486 559 37,000  Level Memphis Center
Tue 06:36:19 PM 36.5442 -86.7642 181° South 476 548 37,000  Level Memphis Center
Tue 06:37:19 PM 36.4233 -86.7669 181° South 476 548 37,000  Level Memphis Center
Tue 06:38:19 PM 36.2736 -86.7736 182° South 490 564 37,000  Level Memphis Center
Tue 06:39:19 PM 36.1278 -86.7747 180° South 489 563 37,000  Level Memphis Center
Tue 06:40:19 PM 36.0208 -86.6872 146° Southeast 449 517 37,000  Level Memphis Center
Tue 06:41:19 PM 35.9219 -86.5892 141° Southeast 456 525 37,000  Level Memphis Center
Tue 06:42:54 PM 35.7617 -86.4342 142° Southeast 458 527 37,000  Level Atlanta Center
Tue 06:43:54 PM 35.6614 -86.3392 142° Southeast 453 521 37,000  Level Atlanta Center
Tue 06:44:54 PM 35.5608 -86.2394 141° Southeast 458 527 37,000  Level Atlanta Center
Tue 06:45:54 PM 35.4728 -86.1581 143° Southeast 458 527 37,000  Level Atlanta Center
Tue 06:46:54 PM 35.3639 -86.0481 141° Southeast 458 527 37,000  Level Atlanta Center
Tue 06:47:54 PM 35.2611 -85.9542 143° Southeast 458 527 37,000  Level Atlanta Center
Tue 06:48:54 PM 35.1725 -85.8708 142° Southeast 458 527 37,000  Level Atlanta Center
Tue 06:49:54 PM 35.0697 -85.7719 142° Southeast 458 527 37,000  Level Atlanta Center
Tue 06:50:54 PM 34.9708 -85.6786 142° Southeast 458 527 37,000  Level Atlanta Center
Tue 06:51:54 PM 34.8700 -85.5806 141° Southeast 458 527 37,000  Level Atlanta Center
Tue 06:52:54 PM 34.7667 -85.4875 143° Southeast 458 527 37,000  Level Atlanta Center
Tue 06:53:54 PM 34.6675 -85.3925 142° Southeast 458 527 37,000  Level Atlanta Center
Tue 06:54:54 PM 34.5683 -85.3000 142° Southeast 458 527 37,000  Level Atlanta Center
Tue 06:55:54 PM 34.4692 -85.2078 143° Southeast 458 527 37,000  Level Atlanta Center
Tue 06:56:54 PM 34.3656 -85.1083 142° Southeast 451 519 37,000  Level Atlanta Center
Tue 06:57:54 PM 34.2619 -85.0164 144° Southeast 446 513 37,000  Level Atlanta Center
Tue 06:58:54 PM 34.1667 -84.9275 142° Southeast 451 519 37,000  Level Atlanta Center
Tue 06:59:54 PM 34.0881 -84.8539 142° Southeast 451 519 37,000  Level Atlanta Center
Tue 07:00:54 PM 33.9758 -84.7528 143° Southeast 451 519 37,000  Level Atlanta Center
Tue 07:01:54 PM 33.8783 -84.6669 144° Southeast 451 519 37,000  Level Atlanta Center
Tue 07:02:54 PM 33.7806 -84.5786 143° Southeast 451 519 37,000  Level Atlanta Center
Tue 07:03:54 PM 33.6767 -84.4881 144° Southeast 451 519 37,000  Level Atlanta Center
Tue 07:04:54 PM 33.5642 -84.4103 150° Southeast 445 512 37,000  Level Atlanta Center
Tue 07:05:54 PM 33.4450 -84.4097 180° South 418 481 37,000  Level Atlanta Center
Tue 07:06:54 PM 33.3325 -84.4217 185° South 417 480 37,000  Level Atlanta Center
Tue 07:07:54 PM 33.2114 -84.4336 185° South 424 488 37,000  Level Atlanta Center
Tue 07:08:54 PM 33.0964 -84.4356 181° South 424 488 37,000  Level Atlanta Center
Tue 07:09:54 PM 32.9794 -84.4425 183° South 424 488 37,000  Level Atlanta Center
Tue 07:10:54 PM 32.8647 -84.4494 183° South 424 488 37,000  Level Atlanta Center
Tue 07:11:54 PM 32.7625 -84.4464 179° South 424 488 37,000  Level Atlanta Center
Tue 07:12:54 PM 32.6436 -84.4383 177° South 417 480 37,000  Level Atlanta Center
Tue 07:13:54 PM 32.5286 -84.4208 173° South 422 486 37,000  Level Atlanta Center
Tue 07:14:54 PM 32.4078 -84.4031 173° South 427 491 37,000  Level Atlanta Center
Tue 07:15:54 PM 32.2908 -84.3878 174° South 427 491 37,000  Level Atlanta Center
Tue 07:17:37 PM 32.0850 -84.3492 171° South 431 496 37,000  Level Jacksonville Center
Tue 07:18:37 PM 31.9622 -84.3178 168° South 437 503 37,000  Level Jacksonville Center
Tue 07:19:37 PM 31.8414 -84.2914 169° South 447 514 37,000  Level Jacksonville Center
Tue 07:20:37 PM 31.7186 -84.2628 169° South 447 514 37,000  Level Jacksonville Center
Tue 07:21:37 PM 31.6000 -84.2169 162° South 447 514 37,000  Level Jacksonville Center
Tue 07:22:37 PM 31.4878 -84.1667 159° South 447 514 37,000  Level Jacksonville Center
Tue 07:23:37 PM 31.3714 -84.1214 162° South 447 514 37,000  Level Jacksonville Center
Tue 07:24:37 PM 31.2550 -84.0711 160° South 447 514 37,000  Level Jacksonville Center
Tue 07:25:37 PM 31.1383 -84.0211 160° South 442 509 37,000  Level Jacksonville Center
Tue 07:26:37 PM 31.0239 -83.9761 161° South 442 509 37,000  Level Jacksonville Center
Tue 07:27:37 PM 30.9075 -83.9264 160° South 442 509 37,000  Level Jacksonville Center
Tue 07:28:37 PM 30.7931 -83.8769 160° South 442 509 37,000  Level Jacksonville Center
Tue 07:29:37 PM 30.6744 -83.8297 161° South 442 509 37,000 -50 Level Jacksonville Center
Tue 07:30:37 PM 30.5517 -83.7778 160° South 442 509 36,900  Descending Jacksonville Center
Tue 07:31:37 PM 30.4369 -83.7311 161° South 436 502 37,000 50 Climbing Jacksonville Center
Tue 07:32:37 PM 30.3206 -83.6842 161° South 436 502 37,000  Level Jacksonville Center
Tue 07:33:37 PM 30.2039 -83.6375 161° South 442 509 37,000  Level Jacksonville Center
Tue 07:34:37 PM 30.0872 -83.5911 161° South 442 509 37,000  Level Jacksonville Center
Tue 07:35:37 PM 29.9664 -83.5422 161° South 442 509 37,000 -50 Level Jacksonville Center
Tue 07:36:37 PM 29.8475 -83.4961 161° South 442 509 36,900  Descending Jacksonville Center
Tue 07:37:37 PM 29.7289 -83.4475 160° South 442 509 37,000 50 Climbing Jacksonville Center
Tue 07:38:37 PM 29.6100 -83.4014 161° South 442 509 37,000 -50 Level Jacksonville Center
Tue 07:39:37 PM 29.4892 -83.3531 161° South 447 514 36,900  Descending Jacksonville Center
Tue 07:40:37 PM 29.3744 -83.3050 160° South 447 514 37,000 50 Climbing Jacksonville Center
Tue 07:41:37 PM 29.2578 -83.2567 160° South 442 509 37,000 -50 Level Jacksonville Center
Tue 07:42:37 PM 29.1408 -83.2111 161° South 442 509 36,900  Descending Jacksonville Center
Tue 07:43:37 PM 29.0242 -83.1656 161° South 442 509 37,000 50 Climbing Jacksonville Center
Tue 07:44:37 PM 28.9114 -83.1178 160° South 442 509 37,000 -50 Level Jacksonville Center
Tue 07:45:37 PM 28.7947 -83.0728 161° South 442 509 36,900  Descending Jacksonville Center
Tue 07:46:37 PM 28.6819 -83.0275 161° South 442 509 37,000 50 Climbing Jacksonville Center
Tue 07:47:37 PM 28.5756 -82.9872 162° South 442 509 37,000 -24 Level Jacksonville Center
Tue 07:50:42 PM 28.2158 -82.8828 166° South 446 513 36,900 -24 Descending Miami Center
Tue 07:51:42 PM 28.0931 -82.8761 177° South 440 506 36,900 50 Level Miami Center
Tue 07:52:42 PM 27.9614 -82.8856 184° South 445 512 37,000 50 Climbing Miami Center
Tue 07:53:42 PM 27.8378 -82.8953 184° South 420 483 37,000  Level Miami Center
Tue 07:54:42 PM 27.7331 -82.9061 185° South 431 496 37,000  Level Miami Center
Tue 07:55:42 PM 27.6117 -82.9161 184° South 436 502 37,000 -50 Level Miami Center
Tue 07:56:42 PM 27.4881 -82.9283 185° South 441 507 36,900  Descending Miami Center
Tue 07:57:42 PM 27.3708 -82.9433 186° South 441 507 37,000 50 Climbing Miami Center
Tue 07:58:42 PM 27.2472 -82.9531 184° South 441 507 37,000  Level Miami Center
Tue 07:59:42 PM 27.1097 -82.9481 178° South 446 513 37,000 -400 Level Miami Center
Tue 08:00:42 PM 26.9886 -82.9489 180° South 446 513 36,200 -900 Descending Miami Center
Tue 08:01:42 PM 26.8636 -82.9422 177° South 446 513 35,200 -950 Descending Miami Center
Tue 08:02:42 PM 26.7392 -82.9242 173° South 446 513 34,300 -950 Descending Miami Center
Tue 08:03:42 PM 26.6156 -82.8922 167° South 451 519 33,300 -950 Descending Miami Center
Tue 08:04:42 PM 26.4897 -82.8533 165° South 462 532 32,400 -950 Descending Miami Center
Tue 08:05:42 PM 26.3800 -82.7828 150° Southeast 462 532 31,400 -1,000 Descending Miami Center
Tue 08:06:42 PM 26.3119 -82.6567 121° Southeast 462 532 30,400 -950 Descending Miami Center
Tue 08:07:42 PM 26.2758 -82.5136 106° East 448 516 29,500 -1,050 Descending Miami Center
Tue 08:08:42 PM 26.2417 -82.3708 105° East 458 527 28,300 -1,600 Descending Miami Center
Tue 08:09:42 PM 26.2072 -82.2306 105° East 470 541 26,300 -1,800 Descending Miami Center
Tue 08:10:42 PM 26.1783 -82.1089 105° East 462 532 24,700 -1,750 Descending Miami Center
Tue 08:11:42 PM 26.1472 -81.9825 105° East 442 509 22,800 -1,850 Descending Miami Center
Tue 08:12:42 PM 26.1139 -81.8608 107° East 426 490 21,000 -1,650 Descending Miami Center
Tue 08:13:42 PM 26.0886 -81.7442 104° East 403 464 19,500 -1,850 Descending Miami Center
Tue 08:14:42 PM 26.0589 -81.6322 106° East 386 444 17,300 -2,100 Descending Miami Center
Tue 08:15:42 PM 26.0331 -81.5294 106° East 364 419 15,300 -1,750 Descending Miami Center
Tue 08:16:42 PM 26.0089 -81.4292 105° East 348 400 13,800 -1,200 Descending Miami Center
Tue 08:17:42 PM 25.9828 -81.3264 106° East 343 395 12,900 -950 Descending Miami Center
Tue 08:18:42 PM 25.9589 -81.2239 105° East 343 395 11,900 -1,067 Descending Miami Center
Tue 08:19:12 PM 25.9356 -81.1653 114° Southeast 339 390 11,300 -1,000 Descending Miami Center
Tue 08:19:42 PM 25.9325 -81.1258 95° East 343 395 10,900 -933 Descending Miami Center
Tue 08:20:42 PM 25.9081 -81.0303 106° East 333 383 9,900 -750 Descending Miami Center
Tue 08:21:42 PM 25.8981 -80.9378 97° East 314 361 9,400 -800 Descending Miami Center
Tue 08:22:42 PM 25.8775 -80.8539 105° East 295 339 8,300 -1,250 Descending Miami Center
Tue 08:23:42 PM 25.8567 -80.7725 106° East 281 323 6,900 -1,400 Descending Miami Center
Tue 08:24:42 PM 25.8358 -80.6911 106° East 276 318 5,500 -1,400 Descending Miami Center
Tue 08:25:42 PM 25.8150 -80.6119 106° East 271 312 4,100 -800 Descending Miami Center
Tue 08:26:42 PM 25.7958 -80.5397 106° East 257 296 3,900 -200 Descending Miami Center

Login

Don't have an account? Register now (free) for customized features, flight alerts, and more!